sensor_id;sensor_type;location;lat;lon;timestamp;P1;durP1;ratioP1;P2;durP2;ratioP2
846;SDS011;410;48.954;9.474;2022-08-01T00:01:38;3.40;;;3.10;;
846;SDS011;410;48.954;9.474;2022-08-01T00:03:41;3.10;;;2.80;;
846;SDS011;410;48.954;9.474;2022-08-01T00:05:44;4.57;;;2.93;;
846;SDS011;410;48.954;9.474;2022-08-01T00:07:48;2.67;;;2.47;;
846;SDS011;410;48.954;9.474;2022-08-01T00:09:53;3.30;;;3.00;;
846;SDS011;410;48.954;9.474;2022-08-01T00:11:56;3.70;;;3.30;;
846;SDS011;410;48.954;9.474;2022-08-01T00:14:10;3.37;;;3.00;;
846;SDS011;410;48.954;9.474;2022-08-01T00:16:13;4.53;;;3.10;;
846;SDS011;410;48.954;9.474;2022-08-01T00:18:17;4.10;;;3.40;;
846;SDS011;410;48.954;9.474;2022-08-01T00:20:20;4.70;;;3.00;;
846;SDS011;410;48.954;9.474;2022-08-01T00:22:23;4.77;;;3.07;;
846;SDS011;410;48.954;9.474;2022-08-01T00:24:26;4.23;;;3.63;;
846;SDS011;410;48.954;9.474;2022-08-01T00:26:31;5.20;;;2.97;;
846;SDS011;410;48.954;9.474;2022-08-01T00:28:34;5.50;;;3.47;;
846;SDS011;410;48.954;9.474;2022-08-01T00:30:37;5.10;;;3.00;;
846;SDS011;410;48.954;9.474;2022-08-01T00:32:40;3.43;;;2.83;;
846;SDS011;410;48.954;9.474;2022-08-01T00:34:43;4.00;;;3.43;;
846;SDS011;410;48.954;9.474;2022-08-01T00:36:47;3.40;;;3.10;;
846;SDS011;410;48.954;9.474;2022-08-01T00:38:50;5.27;;;3.13;;
846;SDS011;410;48.954;9.474;2022-08-01T00:40:53;4.63;;;3.50;;
846;SDS011;410;48.954;9.474;2022-08-01T00:42:57;4.30;;;3.27;;
846;SDS011;410;48.954;9.474;2022-08-01T00:45:00;6.80;;;3.43;;
846;SDS011;410;48.954;9.474;2022-08-01T00:47:03;3.73;;;3.10;;
846;SDS011;410;48.954;9.474;2022-08-01T00:49:07;4.43;;;3.20;;
846;SDS011;410;48.954;9.474;2022-08-01T00:51:11;6.23;;;3.20;;
846;SDS011;410;48.954;9.474;2022-08-01T00:53:15;3.43;;;3.13;;
846;SDS011;410;48.954;9.474;2022-08-01T00:55:19;3.73;;;3.40;;
846;SDS011;410;48.954;9.474;2022-08-01T00:57:22;3.53;;;3.10;;
846;SDS011;410;48.954;9.474;2022-08-01T00:59:47;3.97;;;3.20;;
846;SDS011;410;48.954;9.474;2022-08-01T01:01:50;3.83;;;3.50;;
846;SDS011;410;48.954;9.474;2022-08-01T01:03:54;4.97;;;3.17;;
846;SDS011;410;48.954;9.474;2022-08-01T01:06:06;5.50;;;3.13;;
846;SDS011;410;48.954;9.474;2022-08-01T01:08:16;3.90;;;3.20;;
846;SDS011;410;48.954;9.474;2022-08-01T01:10:24;4.13;;;3.73;;
846;SDS011;410;48.954;9.474;2022-08-01T01:12:35;4.23;;;3.20;;
846;SDS011;410;48.954;9.474;2022-08-01T01:14:44;4.03;;;3.63;;
846;SDS011;410;48.954;9.474;2022-08-01T01:16:51;3.90;;;3.40;;
846;SDS011;410;48.954;9.474;2022-08-01T01:18:56;3.53;;;3.23;;
846;SDS011;410;48.954;9.474;2022-08-01T01:21:03;4.13;;;3.10;;
846;SDS011;410;48.954;9.474;2022-08-01T01:23:17;4.13;;;3.60;;
846;SDS011;410;48.954;9.474;2022-08-01T01:25:32;4.07;;;3.60;;
846;SDS011;410;48.954;9.474;2022-08-01T01:27:50;4.03;;;3.10;;
846;SDS011;410;48.954;9.474;2022-08-01T01:29:56;4.07;;;3.37;;
846;SDS011;410;48.954;9.474;2022-08-01T01:32:04;3.47;;;3.17;;
846;SDS011;410;48.954;9.474;2022-08-01T01:34:09;4.07;;;3.67;;
846;SDS011;410;48.954;9.474;2022-08-01T01:36:14;5.63;;;3.53;;
846;SDS011;410;48.954;9.474;2022-08-01T01:38:19;3.73;;;3.43;;
846;SDS011;410;48.954;9.474;2022-08-01T01:40:24;5.13;;;3.80;;
846;SDS011;410;48.954;9.474;2022-08-01T01:42:28;4.07;;;3.53;;
846;SDS011;410;48.954;9.474;2022-08-01T01:44:32;4.73;;;3.93;;
846;SDS011;410;48.954;9.474;2022-08-01T01:46:38;4.23;;;3.80;;
846;SDS011;410;48.954;9.474;2022-08-01T01:48:42;4.40;;;3.80;;
846;SDS011;410;48.954;9.474;2022-08-01T01:50:47;4.40;;;3.70;;
846;SDS011;410;48.954;9.474;2022-08-01T01:52:51;4.13;;;3.60;;
846;SDS011;410;48.954;9.474;2022-08-01T01:54:55;4.10;;;3.17;;
846;SDS011;410;48.954;9.474;2022-08-01T01:56:59;6.00;;;3.83;;
846;SDS011;410;48.954;9.474;2022-08-01T01:59:03;4.67;;;3.50;;
846;SDS011;410;48.954;9.474;2022-08-01T02:01:06;4.00;;;3.50;;
846;SDS011;410;48.954;9.474;2022-08-01T02:03:16;6.70;;;4.00;;
846;SDS011;410;48.954;9.474;2022-08-01T02:05:20;4.97;;;3.37;;
846;SDS011;410;48.954;9.474;2022-08-01T02:07:24;5.20;;;3.50;;
846;SDS011;410;48.954;9.474;2022-08-01T02:09:27;4.67;;;4.10;;
846;SDS011;410;48.954;9.474;2022-08-01T02:11:31;6.27;;;4.20;;
846;SDS011;410;48.954;9.474;2022-08-01T02:13:36;5.40;;;4.40;;
846;SDS011;410;48.954;9.474;2022-08-01T02:15:39;5.10;;;3.80;;
846;SDS011;410;48.954;9.474;2022-08-01T02:18:01;6.10;;;4.27;;
846;SDS011;410;48.954;9.474;2022-08-01T02:20:06;4.40;;;3.73;;
846;SDS011;410;48.954;9.474;2022-08-01T02:22:10;4.40;;;3.97;;
846;SDS011;410;48.954;9.474;2022-08-01T02:24:17;6.97;;;4.20;;
846;SDS011;410;48.954;9.474;2022-08-01T02:26:31;4.53;;;3.57;;
846;SDS011;410;48.954;9.474;2022-08-01T02:28:35;5.00;;;3.50;;
846;SDS011;410;48.954;9.474;2022-08-01T02:30:41;4.83;;;3.67;;
846;SDS011;410;48.954;9.474;2022-08-01T02:32:47;4.07;;;3.67;;
846;SDS011;410;48.954;9.474;2022-08-01T02:34:52;3.97;;;3.57;;
846;SDS011;410;48.954;9.474;2022-08-01T02:36:57;4.83;;;4.03;;
846;SDS011;410;48.954;9.474;2022-08-01T02:39:02;4.57;;;3.77;;
846;SDS011;410;48.954;9.474;2022-08-01T02:41:10;4.70;;;4.07;;
846;SDS011;410;48.954;9.474;2022-08-01T02:43:18;4.17;;;3.77;;
846;SDS011;410;48.954;9.474;2022-08-01T02:45:24;4.03;;;3.60;;
846;SDS011;410;48.954;9.474;2022-08-01T02:47:28;4.17;;;3.40;;
846;SDS011;410;48.954;9.474;2022-08-01T02:49:33;4.70;;;3.90;;
846;SDS011;410;48.954;9.474;2022-08-01T02:51:39;6.00;;;4.00;;
846;SDS011;410;48.954;9.474;2022-08-01T02:53:44;6.33;;;4.10;;
846;SDS011;410;48.954;9.474;2022-08-01T02:55:48;4.30;;;3.90;;
846;SDS011;410;48.954;9.474;2022-08-01T02:57:52;7.27;;;4.10;;
846;SDS011;410;48.954;9.474;2022-08-01T03:00:01;4.40;;;3.90;;
846;SDS011;410;48.954;9.474;2022-08-01T03:02:04;7.90;;;4.57;;
846;SDS011;410;48.954;9.474;2022-08-01T03:04:10;4.80;;;4.40;;
846;SDS011;410;48.954;9.474;2022-08-01T03:06:13;6.17;;;3.70;;
846;SDS011;410;48.954;9.474;2022-08-01T03:08:18;4.67;;;4.10;;
846;SDS011;410;48.954;9.474;2022-08-01T03:10:24;7.20;;;4.37;;
846;SDS011;410;48.954;9.474;2022-08-01T03:12:27;4.13;;;3.70;;
846;SDS011;410;48.954;9.474;2022-08-01T03:14:33;4.10;;;3.70;;
846;SDS011;410;48.954;9.474;2022-08-01T03:16:38;4.17;;;3.77;;
846;SDS011;410;48.954;9.474;2022-08-01T03:18:43;4.37;;;3.97;;
846;SDS011;410;48.954;9.474;2022-08-01T03:20:47;4.70;;;4.00;;
846;SDS011;410;48.954;9.474;2022-08-01T03:22:51;4.17;;;3.77;;
846;SDS011;410;48.954;9.474;2022-08-01T03:24:56;5.80;;;4.23;;
846;SDS011;410;48.954;9.474;2022-08-01T03:27:02;4.97;;;4.43;;
846;SDS011;410;48.954;9.474;2022-08-01T03:29:06;4.93;;;4.17;;
846;SDS011;410;48.954;9.474;2022-08-01T03:31:11;4.87;;;3.80;;
846;SDS011;410;48.954;9.474;2022-08-01T03:33:15;4.83;;;4.07;;
846;SDS011;410;48.954;9.474;2022-08-01T03:35:18;5.63;;;3.60;;
846;SDS011;410;48.954;9.474;2022-08-01T03:37:23;6.07;;;4.40;;
846;SDS011;410;48.954;9.474;2022-08-01T03:39:31;6.50;;;4.20;;
846;SDS011;410;48.954;9.474;2022-08-01T03:41:37;4.60;;;4.20;;
846;SDS011;410;48.954;9.474;2022-08-01T03:43:45;5.23;;;3.93;;
846;SDS011;410;48.954;9.474;2022-08-01T03:45:51;4.93;;;4.23;;
846;SDS011;410;48.954;9.474;2022-08-01T03:47:55;6.70;;;3.80;;
846;SDS011;410;48.954;9.474;2022-08-01T03:50:03;5.67;;;3.90;;
846;SDS011;410;48.954;9.474;2022-08-01T03:52:12;5.00;;;4.20;;
846;SDS011;410;48.954;9.474;2022-08-01T03:54:17;4.90;;;4.40;;
846;SDS011;410;48.954;9.474;2022-08-01T03:56:23;6.33;;;5.00;;
846;SDS011;410;48.954;9.474;2022-08-01T03:58:26;6.00;;;4.40;;
846;SDS011;410;48.954;9.474;2022-08-01T04:00:31;5.37;;;4.07;;
846;SDS011;410;48.954;9.474;2022-08-01T04:02:38;6.37;;;4.53;;
846;SDS011;410;48.954;9.474;2022-08-01T04:04:41;4.60;;;4.20;;
846;SDS011;410;48.954;9.474;2022-08-01T04:06:45;7.40;;;3.93;;
846;SDS011;410;48.954;9.474;2022-08-01T04:08:51;4.67;;;4.13;;
846;SDS011;410;48.954;9.474;2022-08-01T04:11:00;4.60;;;4.20;;
846;SDS011;410;48.954;9.474;2022-08-01T04:13:04;5.10;;;4.60;;
846;SDS011;410;48.954;9.474;2022-08-01T04:15:07;4.30;;;3.83;;
846;SDS011;410;48.954;9.474;2022-08-01T04:17:12;7.87;;;4.63;;
846;SDS011;410;48.954;9.474;2022-08-01T04:19:15;4.93;;;4.53;;
846;SDS011;410;48.954;9.474;2022-08-01T04:21:20;5.70;;;4.90;;
846;SDS011;410;48.954;9.474;2022-08-01T04:23:25;5.37;;;4.70;;
846;SDS011;410;48.954;9.474;2022-08-01T04:25:32;8.20;;;4.83;;
846;SDS011;410;48.954;9.474;2022-08-01T04:27:38;5.40;;;4.77;;
846;SDS011;410;48.954;9.474;2022-08-01T04:29:52;5.47;;;4.93;;
846;SDS011;410;48.954;9.474;2022-08-01T04:31:56;6.57;;;4.90;;
846;SDS011;410;48.954;9.474;2022-08-01T04:34:01;5.27;;;4.67;;
846;SDS011;410;48.954;9.474;2022-08-01T04:36:06;5.10;;;4.60;;
846;SDS011;410;48.954;9.474;2022-08-01T04:38:11;9.30;;;4.93;;
846;SDS011;410;48.954;9.474;2022-08-01T04:40:18;7.63;;;5.00;;
846;SDS011;410;48.954;9.474;2022-08-01T04:42:23;9.47;;;5.17;;
846;SDS011;410;48.954;9.474;2022-08-01T04:44:34;8.13;;;5.07;;
846;SDS011;410;48.954;9.474;2022-08-01T04:46:37;13.40;;;6.47;;
846;SDS011;410;48.954;9.474;2022-08-01T04:48:40;9.40;;;5.70;;
846;SDS011;410;48.954;9.474;2022-08-01T04:50:45;12.23;;;6.07;;
846;SDS011;410;48.954;9.474;2022-08-01T04:52:48;7.80;;;5.17;;
846;SDS011;410;48.954;9.474;2022-08-01T04:54:52;6.93;;;5.30;;
846;SDS011;410;48.954;9.474;2022-08-01T04:56:56;9.97;;;4.87;;
846;SDS011;410;48.954;9.474;2022-08-01T04:59:01;10.57;;;5.43;;
846;SDS011;410;48.954;9.474;2022-08-01T05:01:21;5.37;;;4.87;;
846;SDS011;410;48.954;9.474;2022-08-01T05:03:24;5.63;;;4.53;;
846;SDS011;410;48.954;9.474;2022-08-01T05:05:28;5.00;;;4.33;;
846;SDS011;410;48.954;9.474;2022-08-01T05:07:33;5.33;;;4.60;;
846;SDS011;410;48.954;9.474;2022-08-01T05:09:46;6.63;;;4.67;;
846;SDS011;410;48.954;9.474;2022-08-01T05:11:49;6.47;;;5.13;;
846;SDS011;410;48.954;9.474;2022-08-01T05:13:52;6.93;;;4.97;;
846;SDS011;410;48.954;9.474;2022-08-01T05:15:55;5.00;;;4.40;;
846;SDS011;410;48.954;9.474;2022-08-01T05:18:00;7.10;;;4.70;;
846;SDS011;410;48.954;9.474;2022-08-01T05:20:06;11.30;;;5.30;;
846;SDS011;410;48.954;9.474;2022-08-01T05:22:09;5.20;;;4.70;;
846;SDS011;410;48.954;9.474;2022-08-01T05:24:14;5.60;;;5.10;;
846;SDS011;410;48.954;9.474;2022-08-01T05:26:17;6.70;;;4.80;;
846;SDS011;410;48.954;9.474;2022-08-01T05:28:21;7.23;;;4.70;;
846;SDS011;410;48.954;9.474;2022-08-01T05:30:24;6.90;;;5.00;;
846;SDS011;410;48.954;9.474;2022-08-01T05:32:27;5.03;;;4.57;;
846;SDS011;410;48.954;9.474;2022-08-01T05:34:31;9.90;;;4.90;;
846;SDS011;410;48.954;9.474;2022-08-01T05:36:34;8.83;;;6.07;;
846;SDS011;410;48.954;9.474;2022-08-01T05:38:39;5.63;;;5.03;;
846;SDS011;410;48.954;9.474;2022-08-01T05:40:43;8.67;;;6.50;;
846;SDS011;410;48.954;9.474;2022-08-01T05:42:47;5.87;;;5.27;;
846;SDS011;410;48.954;9.474;2022-08-01T05:44:50;5.97;;;4.83;;
846;SDS011;410;48.954;9.474;2022-08-01T05:46:53;6.17;;;5.10;;
846;SDS011;410;48.954;9.474;2022-08-01T05:48:56;7.17;;;4.90;;
846;SDS011;410;48.954;9.474;2022-08-01T05:51:00;5.57;;;5.07;;
846;SDS011;410;48.954;9.474;2022-08-01T05:53:03;6.00;;;5.40;;
846;SDS011;410;48.954;9.474;2022-08-01T05:55:06;7.37;;;5.40;;
846;SDS011;410;48.954;9.474;2022-08-01T05:57:12;5.83;;;5.23;;
846;SDS011;410;48.954;9.474;2022-08-01T05:59:15;7.10;;;5.13;;
846;SDS011;410;48.954;9.474;2022-08-01T06:01:19;5.67;;;4.90;;
846;SDS011;410;48.954;9.474;2022-08-01T06:03:23;5.73;;;4.97;;
846;SDS011;410;48.954;9.474;2022-08-01T06:05:26;6.93;;;5.00;;
846;SDS011;410;48.954;9.474;2022-08-01T06:07:29;5.63;;;4.67;;
846;SDS011;410;48.954;9.474;2022-08-01T06:09:32;6.43;;;4.87;;
846;SDS011;410;48.954;9.474;2022-08-01T06:11:35;5.37;;;4.77;;
846;SDS011;410;48.954;9.474;2022-08-01T06:13:39;5.43;;;4.93;;
846;SDS011;410;48.954;9.474;2022-08-01T06:15:49;8.90;;;5.10;;
846;SDS011;410;48.954;9.474;2022-08-01T06:17:52;5.23;;;4.70;;
846;SDS011;410;48.954;9.474;2022-08-01T06:19:56;6.90;;;5.00;;
846;SDS011;410;48.954;9.474;2022-08-01T06:21:59;5.23;;;4.73;;
846;SDS011;410;48.954;9.474;2022-08-01T06:24:02;7.80;;;4.40;;
846;SDS011;410;48.954;9.474;2022-08-01T06:26:06;6.70;;;4.50;;
846;SDS011;410;48.954;9.474;2022-08-01T06:28:09;5.23;;;4.20;;
846;SDS011;410;48.954;9.474;2022-08-01T06:30:13;4.70;;;4.17;;
846;SDS011;410;48.954;9.474;2022-08-01T06:32:17;5.70;;;4.50;;
846;SDS011;410;48.954;9.474;2022-08-01T06:34:28;4.47;;;4.07;;
846;SDS011;410;48.954;9.474;2022-08-01T06:36:31;5.23;;;4.43;;
846;SDS011;410;48.954;9.474;2022-08-01T06:38:34;5.07;;;4.20;;
846;SDS011;410;48.954;9.474;2022-08-01T06:40:37;4.73;;;4.30;;
846;SDS011;410;48.954;9.474;2022-08-01T06:42:40;7.00;;;4.57;;
846;SDS011;410;48.954;9.474;2022-08-01T06:44:44;5.80;;;4.13;;
846;SDS011;410;48.954;9.474;2022-08-01T06:46:48;5.03;;;3.87;;
846;SDS011;410;48.954;9.474;2022-08-01T06:48:51;4.40;;;4.00;;
846;SDS011;410;48.954;9.474;2022-08-01T06:50:54;4.50;;;4.10;;
846;SDS011;410;48.954;9.474;2022-08-01T06:53:10;7.13;;;4.00;;
846;SDS011;410;48.954;9.474;2022-08-01T06:55:13;5.57;;;4.40;;
846;SDS011;410;48.954;9.474;2022-08-01T06:57:16;5.63;;;4.03;;
846;SDS011;410;48.954;9.474;2022-08-01T06:59:19;4.90;;;3.60;;
846;SDS011;410;48.954;9.474;2022-08-01T07:01:22;3.90;;;3.50;;
846;SDS011;410;48.954;9.474;2022-08-01T07:03:27;10.30;;;9.20;;
846;SDS011;410;48.954;9.474;2022-08-01T07:05:50;6.53;;;4.17;;
846;SDS011;410;48.954;9.474;2022-08-01T07:07:53;4.73;;;3.97;;
846;SDS011;410;48.954;9.474;2022-08-01T07:09:56;5.77;;;3.80;;
846;SDS011;410;48.954;9.474;2022-08-01T07:12:00;4.37;;;3.97;;
846;SDS011;410;48.954;9.474;2022-08-01T07:14:03;4.40;;;3.83;;
846;SDS011;410;48.954;9.474;2022-08-01T07:16:06;4.37;;;3.77;;
846;SDS011;410;48.954;9.474;2022-08-01T07:18:09;4.97;;;3.83;;
846;SDS011;410;48.954;9.474;2022-08-01T07:20:14;6.73;;;4.30;;
846;SDS011;410;48.954;9.474;2022-08-01T07:22:17;5.03;;;3.73;;
846;SDS011;410;48.954;9.474;2022-08-01T07:24:24;7.00;;;3.97;;
846;SDS011;410;48.954;9.474;2022-08-01T07:26:29;6.50;;;3.97;;
846;SDS011;410;48.954;9.474;2022-08-01T07:28:32;4.30;;;3.90;;
846;SDS011;410;48.954;9.474;2022-08-01T07:30:44;4.40;;;4.00;;
846;SDS011;410;48.954;9.474;2022-08-01T07:32:47;6.40;;;3.67;;
846;SDS011;410;48.954;9.474;2022-08-01T07:34:50;4.10;;;3.70;;
846;SDS011;410;48.954;9.474;2022-08-01T07:36:55;5.30;;;4.00;;
846;SDS011;410;48.954;9.474;2022-08-01T07:38:58;4.23;;;3.83;;
846;SDS011;410;48.954;9.474;2022-08-01T07:41:01;4.27;;;3.53;;
846;SDS011;410;48.954;9.474;2022-08-01T07:43:05;2.83;;;2.43;;
846;SDS011;410;48.954;9.474;2022-08-01T07:45:08;2.57;;;2.30;;
846;SDS011;410;48.954;9.474;2022-08-01T07:47:12;5.10;;;3.10;;
846;SDS011;410;48.954;9.474;2022-08-01T07:49:15;3.33;;;2.37;;
846;SDS011;410;48.954;9.474;2022-08-01T07:51:18;3.80;;;2.57;;
846;SDS011;410;48.954;9.474;2022-08-01T07:53:23;3.30;;;2.60;;
846;SDS011;410;48.954;9.474;2022-08-01T07:55:26;2.53;;;2.33;;
846;SDS011;410;48.954;9.474;2022-08-01T07:57:29;4.00;;;2.83;;
846;SDS011;410;48.954;9.474;2022-08-01T07:59:32;4.03;;;2.83;;
846;SDS011;410;48.954;9.474;2022-08-01T08:01:36;3.37;;;2.67;;
846;SDS011;410;48.954;9.474;2022-08-01T08:03:39;3.10;;;2.70;;
846;SDS011;410;48.954;9.474;2022-08-01T08:05:42;3.80;;;2.83;;
846;SDS011;410;48.954;9.474;2022-08-01T08:08:00;3.00;;;2.60;;
846;SDS011;410;48.954;9.474;2022-08-01T08:10:05;3.00;;;2.67;;
846;SDS011;410;48.954;9.474;2022-08-01T08:12:09;6.73;;;2.40;;
846;SDS011;410;48.954;9.474;2022-08-01T08:14:13;4.73;;;3.00;;
846;SDS011;410;48.954;9.474;2022-08-01T08:16:16;3.10;;;2.70;;
846;SDS011;410;48.954;9.474;2022-08-01T08:18:20;6.60;;;2.80;;
846;SDS011;410;48.954;9.474;2022-08-01T08:20:23;3.07;;;2.30;;
846;SDS011;410;48.954;9.474;2022-08-01T08:22:28;5.00;;;2.80;;
846;SDS011;410;48.954;9.474;2022-08-01T08:24:32;3.30;;;2.03;;
846;SDS011;410;48.954;9.474;2022-08-01T08:26:36;3.83;;;2.40;;
846;SDS011;410;48.954;9.474;2022-08-01T08:28:40;3.17;;;2.33;;
846;SDS011;410;48.954;9.474;2022-08-01T08:30:43;3.00;;;2.53;;
846;SDS011;410;48.954;9.474;2022-08-01T08:32:47;4.37;;;3.17;;
846;SDS011;410;48.954;9.474;2022-08-01T08:34:50;4.60;;;2.60;;
846;SDS011;410;48.954;9.474;2022-08-01T08:36:53;4.07;;;2.70;;
846;SDS011;410;48.954;9.474;2022-08-01T08:38:59;3.00;;;2.67;;
846;SDS011;410;48.954;9.474;2022-08-01T08:41:03;2.80;;;2.50;;
846;SDS011;410;48.954;9.474;2022-08-01T08:43:08;4.23;;;2.37;;
846;SDS011;410;48.954;9.474;2022-08-01T08:45:11;2.80;;;2.53;;
846;SDS011;410;48.954;9.474;2022-08-01T08:47:15;2.70;;;2.43;;
846;SDS011;410;48.954;9.474;2022-08-01T08:49:22;4.47;;;2.80;;
846;SDS011;410;48.954;9.474;2022-08-01T08:51:38;3.13;;;2.60;;
846;SDS011;410;48.954;9.474;2022-08-01T08:53:42;3.63;;;2.60;;
846;SDS011;410;48.954;9.474;2022-08-01T08:55:46;3.00;;;2.70;;
846;SDS011;410;48.954;9.474;2022-08-01T08:57:57;3.47;;;2.57;;
846;SDS011;410;48.954;9.474;2022-08-01T09:00:04;3.37;;;2.57;;
846;SDS011;410;48.954;9.474;2022-08-01T09:02:08;3.77;;;2.17;;
846;SDS011;410;48.954;9.474;2022-08-01T09:04:13;3.07;;;2.50;;
846;SDS011;410;48.954;9.474;2022-08-01T09:06:16;3.77;;;2.60;;
846;SDS011;410;48.954;9.474;2022-08-01T09:08:20;2.67;;;2.47;;
846;SDS011;410;48.954;9.474;2022-08-01T09:10:23;5.37;;;2.30;;
846;SDS011;410;48.954;9.474;2022-08-01T09:12:26;2.73;;;2.40;;
846;SDS011;410;48.954;9.474;2022-08-01T09:14:29;3.03;;;2.73;;
846;SDS011;410;48.954;9.474;2022-08-01T09:16:35;4.37;;;2.63;;
846;SDS011;410;48.954;9.474;2022-08-01T09:18:39;3.27;;;2.97;;
846;SDS011;410;48.954;9.474;2022-08-01T09:20:45;4.30;;;2.80;;
846;SDS011;410;48.954;9.474;2022-08-01T09:22:48;3.47;;;2.80;;
846;SDS011;410;48.954;9.474;2022-08-01T09:24:57;2.80;;;2.60;;
846;SDS011;410;48.954;9.474;2022-08-01T09:27:14;3.70;;;2.67;;
846;SDS011;410;48.954;9.474;2022-08-01T09:29:22;3.23;;;2.57;;
846;SDS011;410;48.954;9.474;2022-08-01T09:31:41;3.77;;;3.03;;
846;SDS011;410;48.954;9.474;2022-08-01T09:33:49;3.10;;;2.60;;
846;SDS011;410;48.954;9.474;2022-08-01T09:35:54;3.27;;;2.50;;
846;SDS011;410;48.954;9.474;2022-08-01T09:38:11;2.97;;;2.40;;
846;SDS011;410;48.954;9.474;2022-08-01T09:40:15;3.20;;;2.40;;
846;SDS011;410;48.954;9.474;2022-08-01T09:42:20;6.17;;;2.47;;
846;SDS011;410;48.954;9.474;2022-08-01T09:44:38;4.00;;;2.77;;
846;SDS011;410;48.954;9.474;2022-08-01T09:46:49;4.43;;;2.60;;
846;SDS011;410;48.954;9.474;2022-08-01T09:48:57;2.90;;;2.60;;
846;SDS011;410;48.954;9.474;2022-08-01T09:51:01;2.73;;;2.53;;
846;SDS011;410;48.954;9.474;2022-08-01T09:53:10;2.90;;;2.60;;
846;SDS011;410;48.954;9.474;2022-08-01T09:55:31;3.13;;;2.83;;
846;SDS011;410;48.954;9.474;2022-08-01T09:57:34;3.83;;;2.47;;
846;SDS011;410;48.954;9.474;2022-08-01T09:59:37;2.80;;;2.50;;
846;SDS011;410;48.954;9.474;2022-08-01T10:02:00;2.80;;;2.40;;
846;SDS011;410;48.954;9.474;2022-08-01T10:04:05;4.13;;;2.70;;
846;SDS011;410;48.954;9.474;2022-08-01T10:06:18;6.40;;;2.90;;
846;SDS011;410;48.954;9.474;2022-08-01T10:08:25;3.17;;;2.70;;
846;SDS011;410;48.954;9.474;2022-08-01T10:10:30;3.10;;;2.80;;
846;SDS011;410;48.954;9.474;2022-08-01T10:12:33;3.90;;;3.50;;
846;SDS011;410;48.954;9.474;2022-08-01T10:14:38;2.83;;;2.63;;
846;SDS011;410;48.954;9.474;2022-08-01T10:16:41;3.07;;;2.77;;
846;SDS011;410;48.954;9.474;2022-08-01T10:18:47;3.60;;;3.03;;
846;SDS011;410;48.954;9.474;2022-08-01T10:20:52;3.43;;;3.13;;
846;SDS011;410;48.954;9.474;2022-08-01T10:22:58;4.33;;;3.70;;
846;SDS011;410;48.954;9.474;2022-08-01T10:25:07;3.00;;;2.80;;
846;SDS011;410;48.954;9.474;2022-08-01T10:27:15;3.47;;;2.83;;
846;SDS011;410;48.954;9.474;2022-08-01T10:29:42;3.40;;;2.67;;
846;SDS011;410;48.954;9.474;2022-08-01T10:32:06;4.37;;;3.30;;
846;SDS011;410;48.954;9.474;2022-08-01T10:34:12;5.43;;;3.20;;
846;SDS011;410;48.954;9.474;2022-08-01T10:36:17;4.20;;;2.83;;
846;SDS011;410;48.954;9.474;2022-08-01T10:38:23;4.00;;;2.90;;
846;SDS011;410;48.954;9.474;2022-08-01T10:40:26;3.73;;;3.07;;
846;SDS011;410;48.954;9.474;2022-08-01T10:42:32;5.50;;;3.10;;
846;SDS011;410;48.954;9.474;2022-08-01T10:44:36;3.30;;;3.00;;
846;SDS011;410;48.954;9.474;2022-08-01T10:46:42;3.37;;;3.07;;
846;SDS011;410;48.954;9.474;2022-08-01T10:48:49;3.30;;;3.00;;
846;SDS011;410;48.954;9.474;2022-08-01T10:50:59;3.63;;;3.33;;
846;SDS011;410;48.954;9.474;2022-08-01T10:53:07;3.43;;;3.13;;
846;SDS011;410;48.954;9.474;2022-08-01T10:55:17;6.20;;;3.67;;
846;SDS011;410;48.954;9.474;2022-08-01T10:57:20;3.53;;;3.13;;
846;SDS011;410;48.954;9.474;2022-08-01T10:59:28;4.80;;;3.00;;
846;SDS011;410;48.954;9.474;2022-08-01T11:01:55;4.83;;;3.23;;
846;SDS011;410;48.954;9.474;2022-08-01T11:04:05;3.83;;;3.40;;
846;SDS011;410;48.954;9.474;2022-08-01T11:06:17;3.60;;;3.30;;
846;SDS011;410;48.954;9.474;2022-08-01T11:08:23;3.57;;;3.23;;
846;SDS011;410;48.954;9.474;2022-08-01T11:10:29;4.63;;;3.10;;
846;SDS011;410;48.954;9.474;2022-08-01T11:12:37;3.53;;;2.97;;
846;SDS011;410;48.954;9.474;2022-08-01T11:17:32;3.60;;;2.73;;
846;SDS011;410;48.954;9.474;2022-08-01T11:22:10;2.50;;;2.00;;
846;SDS011;410;48.954;9.474;2022-08-01T11:24:13;2.77;;;2.37;;
846;SDS011;410;48.954;9.474;2022-08-01T11:26:17;4.97;;;2.67;;
846;SDS011;410;48.954;9.474;2022-08-01T11:28:30;3.37;;;2.50;;
846;SDS011;410;48.954;9.474;2022-08-01T11:30:42;3.37;;;3.07;;
846;SDS011;410;48.954;9.474;2022-08-01T11:32:46;6.47;;;3.20;;
846;SDS011;410;48.954;9.474;2022-08-01T11:35:09;3.97;;;2.80;;
846;SDS011;410;48.954;9.474;2022-08-01T11:37:24;3.23;;;2.80;;
846;SDS011;410;48.954;9.474;2022-08-01T11:39:31;3.67;;;2.60;;
846;SDS011;410;48.954;9.474;2022-08-01T11:41:39;3.17;;;2.77;;
846;SDS011;410;48.954;9.474;2022-08-01T11:43:55;2.63;;;2.43;;
846;SDS011;410;48.954;9.474;2022-08-01T11:45:59;3.23;;;2.93;;
846;SDS011;410;48.954;9.474;2022-08-01T11:48:03;5.80;;;2.93;;
846;SDS011;410;48.954;9.474;2022-08-01T11:52:45;3.17;;;2.37;;
846;SDS011;410;48.954;9.474;2022-08-01T11:54:49;2.50;;;2.30;;
846;SDS011;410;48.954;9.474;2022-08-01T11:56:54;2.77;;;2.23;;
846;SDS011;410;48.954;9.474;2022-08-01T11:58:58;3.00;;;2.70;;
846;SDS011;410;48.954;9.474;2022-08-01T12:01:04;2.50;;;2.30;;
846;SDS011;410;48.954;9.474;2022-08-01T12:03:08;2.23;;;2.03;;
846;SDS011;410;48.954;9.474;2022-08-01T12:05:24;3.23;;;2.23;;
846;SDS011;410;48.954;9.474;2022-08-01T12:07:32;2.23;;;2.03;;
846;SDS011;410;48.954;9.474;2022-08-01T12:09:37;3.60;;;2.70;;
846;SDS011;410;48.954;9.474;2022-08-01T12:11:41;3.53;;;2.20;;
846;SDS011;410;48.954;9.474;2022-08-01T12:13:44;2.57;;;2.37;;
846;SDS011;410;48.954;9.474;2022-08-01T12:15:48;4.37;;;2.50;;
846;SDS011;410;48.954;9.474;2022-08-01T12:17:58;2.70;;;2.40;;
846;SDS011;410;48.954;9.474;2022-08-01T12:20:03;4.13;;;2.57;;
846;SDS011;410;48.954;9.474;2022-08-01T12:22:09;3.70;;;2.50;;
846;SDS011;410;48.954;9.474;2022-08-01T12:24:13;2.40;;;2.20;;
846;SDS011;410;48.954;9.474;2022-08-01T12:26:39;4.00;;;2.50;;
846;SDS011;410;48.954;9.474;2022-08-01T12:28:42;3.07;;;2.00;;
846;SDS011;410;48.954;9.474;2022-08-01T12:30:46;2.80;;;2.20;;
846;SDS011;410;48.954;9.474;2022-08-01T12:32:51;5.15;;;2.30;;
846;SDS011;410;48.954;9.474;2022-08-01T12:34:55;2.70;;;2.50;;
846;SDS011;410;48.954;9.474;2022-08-01T12:37:00;4.07;;;2.47;;
846;SDS011;410;48.954;9.474;2022-08-01T12:39:05;3.20;;;2.70;;
846;SDS011;410;48.954;9.474;2022-08-01T12:41:10;3.03;;;2.40;;
846;SDS011;410;48.954;9.474;2022-08-01T12:43:17;3.20;;;2.90;;
846;SDS011;410;48.954;9.474;2022-08-01T12:45:30;3.30;;;2.60;;
846;SDS011;410;48.954;9.474;2022-08-01T12:47:35;2.87;;;2.50;;
846;SDS011;410;48.954;9.474;2022-08-01T12:49:39;3.80;;;2.83;;
846;SDS011;410;48.954;9.474;2022-08-01T12:51:44;5.20;;;3.53;;
846;SDS011;410;48.954;9.474;2022-08-01T12:53:58;3.57;;;2.80;;
846;SDS011;410;48.954;9.474;2022-08-01T12:56:01;2.60;;;2.40;;
846;SDS011;410;48.954;9.474;2022-08-01T12:58:05;3.07;;;2.00;;
846;SDS011;410;48.954;9.474;2022-08-01T13:00:19;2.60;;;2.10;;
846;SDS011;410;48.954;9.474;2022-08-01T13:02:31;5.50;;;2.53;;
846;SDS011;410;48.954;9.474;2022-08-01T13:04:48;3.42;;;2.30;;
846;SDS011;410;48.954;9.474;2022-08-01T13:06:52;4.97;;;2.33;;
846;SDS011;410;48.954;9.474;2022-08-01T13:09:04;2.63;;;2.43;;
846;SDS011;410;48.954;9.474;2022-08-01T13:11:09;2.60;;;2.40;;
846;SDS011;410;48.954;9.474;2022-08-01T13:13:17;3.73;;;2.57;;
846;SDS011;410;48.954;9.474;2022-08-01T13:15:30;3.03;;;2.30;;
846;SDS011;410;48.954;9.474;2022-08-01T13:17:36;2.87;;;2.57;;
846;SDS011;410;48.954;9.474;2022-08-01T13:19:43;2.50;;;2.30;;
846;SDS011;410;48.954;9.474;2022-08-01T13:21:54;5.40;;;4.87;;
846;SDS011;410;48.954;9.474;2022-08-01T13:24:02;2.60;;;2.30;;
846;SDS011;410;48.954;9.474;2022-08-01T13:26:06;2.57;;;1.90;;
846;SDS011;410;48.954;9.474;2022-08-01T13:28:16;2.50;;;1.90;;
846;SDS011;410;48.954;9.474;2022-08-01T13:30:21;2.60;;;2.10;;
846;SDS011;410;48.954;9.474;2022-08-01T13:32:26;2.63;;;2.20;;
846;SDS011;410;48.954;9.474;2022-08-01T13:34:33;3.60;;;2.20;;
846;SDS011;410;48.954;9.474;2022-08-01T13:36:37;3.30;;;2.17;;